Time;durP1;ratioP1;P1;durP2;ratioP2;P2;SDS_P1;SDS_P2;PMS_P1;PMS_P2;Temp;Humidity;BMP_temperature;BMP_pressure;BME280_temperature;BME280_humidity;BME280_pressure;Samples;Min_cycle;Max_cycle;Signal;HPM_P1;HPM_P2
2022/04/29 00:00:34;;;;;;;10.40;6.47;;;4.50;49.40;;;;;;4960084;28;49123;-62
2022/04/29 00:03:00;;;;;;;9.17;6.00;;;4.50;49.40;;;;;;4959801;28;46413;-65
2022/04/29 00:05:26;;;;;;;14.53;7.47;;;4.50;49.30;;;;;;4958535;28;46323;-65
2022/04/29 00:07:52;;;;;;;18.03;7.97;;;4.50;49.30;;;;;;4959905;28;46032;-64
2022/04/29 00:10:19;;;;;;;14.07;8.33;;;4.60;49.30;;;;;;4959577;28;47805;-64
2022/04/29 00:12:48;;;;;;;11.13;6.63;;;4.60;49.20;;;;;;4959861;28;46557;-66
2022/04/29 00:15:16;;;;;;;10.70;7.17;;;4.70;49.10;;;;;;4957578;28;46453;-64
2022/04/29 00:17:43;;;;;;;9.07;6.97;;;4.70;49.00;;;;;;4960206;28;46477;-65
2022/04/29 00:20:10;;;;;;;9.13;6.90;;;4.80;49.30;;;;;;4959194;28;47869;-64
2022/04/29 00:22:36;;;;;;;8.90;6.20;;;4.70;49.30;;;;;;4955767;28;46337;-64
2022/04/29 00:25:03;;;;;;;8.27;6.30;;;4.70;49.40;;;;;;4959852;28;46415;-65
2022/04/29 00:27:29;;;;;;;6.60;5.20;;;4.60;49.80;;;;;;4959384;28;46452;-65
2022/04/29 00:29:55;;;;;;;8.73;6.10;;;4.50;50.00;;;;;;4958545;28;48075;-65
2022/04/29 00:32:22;;;;;;;7.93;5.87;;;4.40;50.30;;;;;;4961944;28;46594;-64
2022/04/29 00:34:49;;;;;;;8.73;6.20;;;4.30;50.40;;;;;;4963204;28;46440;-65
2022/04/29 00:37:15;;;;;;;9.70;6.23;;;4.30;50.60;;;;;;4963063;28;45904;-65
2022/04/29 00:39:41;;;;;;;10.23;7.13;;;4.20;50.60;;;;;;4962837;28;47751;-63
2022/04/29 00:42:14;;;;;;;8.93;6.60;;;4.20;50.60;;;;;;4962421;28;46333;-66
2022/04/29 00:44:42;;;;;;;10.10;6.83;;;4.30;50.80;;;;;;4961857;28;46499;-64
2022/04/29 00:47:13;;;;;;;9.13;6.60;;;4.20;50.60;;;;;;4963139;28;46381;-64
2022/04/29 00:49:39;;;;;;;9.07;6.87;;;4.20;50.80;;;;;;4962670;28;49200;-65
2022/04/29 00:52:07;;;;;;;10.73;6.97;;;4.30;50.60;;;;;;4953314;28;46381;-65
2022/04/29 00:54:37;;;;;;;9.93;5.87;;;4.20;50.60;;;;;;4959944;28;46503;-64
2022/04/29 00:57:10;;;;;;;11.37;6.77;;;4.10;50.70;;;;;;4961644;28;45885;-63
2022/04/29 00:59:45;;;;;;;12.43;6.30;;;4.10;51.10;;;;;;4958074;28;46501;-64
2022/04/29 01:02:13;;;;;;;10.43;6.50;;;4.00;51.20;;;;;;4961671;28;46562;-64
2022/04/29 01:05:07;;;;;;;10.63;6.30;;;4.00;51.20;;;;;;4963282;28;46669;-64
2022/04/29 01:07:35;;;;;;;10.47;6.27;;;3.90;51.60;;;;;;4965048;28;46428;-63
2022/04/29 01:10:02;;;;;;;15.57;6.60;;;3.90;51.30;;;;;;4961228;28;47825;-65
2022/04/29 01:12:30;;;;;;;10.20;7.80;;;3.90;51.40;;;;;;4962460;28;46547;-63
2022/04/29 01:15:01;;;;;;;10.03;6.87;;;3.90;51.40;;;;;;4962037;28;46358;-64
2022/04/29 01:17:27;;;;;;;9.20;6.57;;;3.90;51.30;;;;;;4963619;28;46641;-66
2022/04/29 01:19:53;;;;;;;10.23;6.30;;;3.80;51.20;;;;;;4961243;28;46396;-64
2022/04/29 01:22:19;;;;;;;12.13;7.40;;;3.80;51.30;;;;;;4963635;28;46635;-64
2022/04/29 01:24:47;;;;;;;10.63;6.67;;;3.80;51.40;;;;;;4961054;28;45856;-64
2022/04/29 01:27:13;;;;;;;13.17;7.10;;;3.80;51.50;;;;;;4962427;28;46352;-64
2022/04/29 01:29:45;;;;;;;10.80;6.70;;;3.80;51.60;;;;;;4960952;28;47537;-64
2022/04/29 01:32:11;;;;;;;9.07;6.10;;;3.80;51.60;;;;;;4961827;28;46458;-65
2022/04/29 01:34:37;;;;;;;10.57;6.63;;;3.70;51.60;;;;;;4961868;28;46361;-64
2022/04/29 01:37:04;;;;;;;9.20;6.00;;;3.70;51.70;;;;;;4961438;28;46666;-64
2022/04/29 01:39:31;;;;;;;9.03;5.67;;;3.70;51.90;;;;;;4961464;28;48059;-64
2022/04/29 01:41:56;;;;;;;7.40;5.68;;;3.60;51.70;;;;;;4961871;28;46468;-63
2022/04/29 01:44:22;;;;;;;10.83;6.50;;;3.60;51.80;;;;;;4961810;28;46547;-65
2022/04/29 01:46:48;;;;;;;12.70;5.97;;;3.60;51.80;;;;;;4961448;28;45995;-63
2022/04/29 01:49:15;;;;;;;8.87;6.00;;;3.60;52.00;;;;;;4960764;28;48158;-63
2022/04/29 01:51:41;;;;;;;8.07;5.60;;;3.60;51.90;;;;;;4961157;28;46352;-63
2022/04/29 01:54:10;;;;;;;8.97;6.40;;;3.60;52.00;;;;;;4959883;28;46469;-64
2022/04/29 01:56:40;;;;;;;9.10;6.50;;;3.50;52.10;;;;;;4961191;28;46132;-64
2022/04/29 01:59:07;;;;;;;8.27;5.97;;;3.60;52.20;;;;;;4960067;28;46422;-64
2022/04/29 02:01:34;;;;;;;8.50;5.55;;;3.60;52.20;;;;;;4962898;28;46453;-64
2022/04/29 02:04:00;;;;;;;9.50;6.45;;;3.50;52.20;;;;;;4961120;28;46428;-64
2022/04/29 02:06:26;;;;;;;9.43;5.53;;;3.50;52.30;;;;;;4961495;28;46613;-63
2022/04/29 02:08:53;;;;;;;10.90;5.13;;;3.40;52.30;;;;;;4951637;28;46468;-64
2022/04/29 02:11:20;;;;;;;11.90;5.22;;;3.30;52.60;;;;;;4956500;28;46405;-65
2022/04/29 02:13:46;;;;;;;9.70;6.10;;;3.20;52.80;;;;;;4957633;28;45782;-64
2022/04/29 02:16:13;;;;;;;8.83;6.07;;;3.20;52.90;;;;;;4953667;28;46558;-64
2022/04/29 02:18:39;;;;;;;8.93;5.87;;;3.10;53.00;;;;;;4957921;28;46591;-64
2022/04/29 02:21:05;;;;;;;14.10;6.55;;;3.10;52.90;;;;;;4967364;28;46548;-64
2022/04/29 02:23:31;;;;;;;10.87;6.00;;;3.10;53.00;;;;;;4954000;28;46381;-64
2022/04/29 02:25:57;;;;;;;10.73;6.27;;;3.10;52.80;;;;;;4955458;28;46460;-64
2022/04/29 02:28:27;;;;;;;11.55;5.85;;;3.10;52.90;;;;;;4956312;28;46390;-64
2022/04/29 02:30:55;;;;;;;10.88;6.40;;;3.10;52.90;;;;;;4957633;28;46440;-64
2022/04/29 02:33:21;;;;;;;8.80;5.90;;;3.10;52.80;;;;;;4956742;28;46465;-64
2022/04/29 02:35:46;;;;;;;9.87;6.60;;;3.10;52.70;;;;;;4959084;28;46638;-64
2022/04/29 02:38:12;;;;;;;7.43;5.80;;;3.10;52.80;;;;;;4956732;28;46589;-64
2022/04/29 02:40:38;;;;;;;6.97;5.03;;;3.10;52.80;;;;;;4953319;28;45921;-64
2022/04/29 02:43:03;;;;;;;9.70;6.90;;;3.00;52.80;;;;;;4953897;28;46956;-64
2022/04/29 02:45:29;;;;;;;10.20;6.43;;;3.00;52.80;;;;;;4955357;28;46539;-64
2022/04/29 02:47:55;;;;;;;9.13;6.20;;;3.00;52.80;;;;;;4956470;28;48353;-62
2022/04/29 02:50:21;;;;;;;9.60;5.73;;;3.10;53.00;;;;;;4958322;28;46479;-64
2022/04/29 02:52:46;;;;;;;12.03;6.30;;;3.00;52.90;;;;;;4960964;28;46506;-65
2022/04/29 02:55:12;;;;;;;10.33;6.60;;;3.00;53.00;;;;;;4958040;28;46805;-64
2022/04/29 02:57:38;;;;;;;9.53;6.23;;;3.00;53.10;;;;;;4959660;28;46289;-64
2022/04/29 03:00:04;;;;;;;13.90;6.57;;;2.90;53.40;;;;;;4959796;28;45777;-64
2022/04/29 03:02:30;;;;;;;7.90;5.50;;;2.80;53.60;;;;;;4959088;28;46558;-64
2022/04/29 03:04:55;;;;;;;9.30;6.00;;;2.80;53.60;;;;;;4962266;28;46533;-64
2022/04/29 03:07:21;;;;;;;11.30;5.53;;;2.80;53.60;;;;;;4959828;28;46502;-64
2022/04/29 03:09:49;;;;;;;14.03;6.63;;;2.80;53.70;;;;;;4959611;28;46349;-64
2022/04/29 03:12:15;;;;;;;9.95;6.78;;;2.70;53.60;;;;;;4960435;28;46486;-63
2022/04/29 03:14:41;;;;;;;11.33;6.80;;;2.70;54.10;;;;;;4960675;28;46666;-62
2022/04/29 03:18:18;;;;;;;9.60;6.80;;;2.70;54.20;;;;;;4960303;28;46473;-64
2022/04/29 03:19:53;;;;;;;12.68;6.50;;;2.70;54.00;;;;;;4959727;28;45895;-65
2022/04/29 03:22:19;;;;;;;10.83;6.90;;;2.80;53.90;;;;;;4960405;28;46457;-64
2022/04/29 03:24:44;;;;;;;10.37;5.90;;;2.80;53.90;;;;;;4960271;28;46428;-63
2022/04/29 03:27:10;;;;;;;8.43;5.90;;;2.80;53.70;;;;;;4959826;28;48295;-63
2022/04/29 03:29:37;;;;;;;8.73;6.10;;;2.80;53.80;;;;;;4958857;28;46492;-64
2022/04/29 03:32:03;;;;;;;8.88;5.60;;;2.70;54.10;;;;;;4960432;28;46346;-64
2022/04/29 03:34:28;;;;;;;7.90;5.60;;;2.60;54.20;;;;;;4960199;28;46425;-63
2022/04/29 03:36:54;;;;;;;9.50;5.70;;;2.60;54.30;;;;;;4959073;28;46500;-65
2022/04/29 03:39:20;;;;;;;9.50;5.70;;;2.50;54.40;;;;;;4959465;28;46292;-64
2022/04/29 03:41:45;;;;;;;8.17;6.30;;;2.50;54.50;;;;;;4944175;28;46484;-64
2022/04/29 03:44:11;;;;;;;10.10;6.40;;;2.50;54.50;;;;;;4959452;28;46502;-65
2022/04/29 03:46:37;;;;;;;9.10;6.03;;;2.50;54.40;;;;;;4959916;28;49085;-65
2022/04/29 03:51:47;;;;;;;8.68;5.80;;;2.50;54.40;;;;;;4961914;28;46439;-64
2022/04/29 03:54:12;;;;;;;11.97;6.70;;;2.50;54.40;;;;;;4959674;28;45988;-64
2022/04/29 03:56:38;;;;;;;9.03;6.07;;;2.50;54.60;;;;;;4959713;28;47784;-62
2022/04/29 03:59:03;;;;;;;10.60;6.13;;;2.50;54.70;;;;;;4958992;28;46737;-64
2022/04/29 04:01:31;;;;;;;12.20;6.27;;;2.50;54.70;;;;;;4959928;28;46464;-64
2022/04/29 04:03:57;;;;;;;8.48;5.50;;;2.50;54.80;;;;;;4959796;28;46424;-65
2022/04/29 04:09:06;;;;;;;7.75;5.55;;;2.50;54.90;;;;;;4964422;28;46431;-62
2022/04/29 04:11:33;;;;;;;11.53;5.50;;;2.50;54.80;;;;;;4963855;28;45865;-64
2022/04/29 04:13:58;;;;;;;7.35;5.63;;;2.50;54.70;;;;;;4963486;28;46421;-63
2022/04/29 04:16:24;;;;;;;10.40;5.83;;;2.60;54.80;;;;;;4962589;28;48194;-64
2022/04/29 04:18:51;;;;;;;10.37;6.50;;;2.60;54.70;;;;;;4962381;28;46385;-64
2022/04/29 04:21:17;;;;;;;10.65;5.53;;;2.60;54.60;;;;;;4963400;28;46553;-64
2022/04/29 04:23:42;;;;;;;8.50;5.90;;;2.60;54.60;;;;;;4963221;28;46341;-64
2022/04/29 04:26:08;;;;;;;8.20;6.17;;;2.70;54.60;;;;;;4963058;28;49135;-64
2022/04/29 04:28:34;;;;;;;9.13;5.57;;;2.80;54.50;;;;;;4962478;28;46678;-64
2022/04/29 04:31:00;;;;;;;8.50;6.03;;;2.80;54.40;;;;;;4962941;28;46477;-64
2022/04/29 04:33:25;;;;;;;12.33;5.87;;;2.90;54.30;;;;;;4963440;28;46435;-63
2022/04/29 04:35:51;;;;;;;11.87;6.50;;;3.00;54.30;;;;;;4962030;28;48844;-64
2022/04/29 04:38:17;;;;;;;12.83;6.00;;;3.10;54.10;;;;;;4962871;28;46608;-64
2022/04/29 04:40:43;;;;;;;7.90;5.60;;;3.20;53.80;;;;;;4963304;28;46386;-64
2022/04/29 04:43:08;;;;;;;8.80;5.57;;;3.30;53.80;;;;;;4963163;28;46422;-64
2022/04/29 04:45:34;;;;;;;8.37;6.10;;;3.40;53.80;;;;;;4959752;28;47982;-64
2022/04/29 04:48:00;;;;;;;14.20;5.97;;;3.50;53.70;;;;;;4962621;28;46325;-63
2022/04/29 04:50:25;;;;;;;10.00;6.27;;;3.60;53.70;;;;;;4963077;28;46361;-63
2022/04/29 04:52:54;;;;;;;12.93;6.50;;;3.70;53.30;;;;;;4963682;28;46354;-63
2022/04/29 04:55:20;;;;;;;9.70;5.68;;;3.90;53.20;;;;;;4963343;28;47847;-63
2022/04/29 04:57:46;;;;;;;7.73;5.60;;;4.10;52.70;;;;;;4962263;28;46759;-63
2022/04/29 05:00:12;;;;;;;7.77;4.97;;;4.90;52.80;;;;;;4944946;28;46745;-63
2022/04/29 05:02:41;;;;;;;6.33;4.60;;;6.10;53.00;;;;;;4964308;28;45828;-63
2022/04/29 05:05:10;;;;;;;6.67;4.30;;;7.30;51.60;;;;;;4962121;28;46556;-63
2022/04/29 05:07:38;;;;;;;4.43;3.60;;;8.40;51.00;;;;;;4962061;28;46460;-63
2022/04/29 05:10:06;;;;;;;6.33;4.10;;;9.30;48.90;;;;;;4958820;28;46306;-63
2022/04/29 05:12:36;;;;;;;7.60;5.00;;;10.30;46.80;;;;;;4962349;28;46397;-63
2022/04/29 05:15:02;;;;;;;17.70;6.13;;;11.20;45.30;;;;;;4962706;28;48922;-63
2022/04/29 05:17:28;;;;;;;7.60;4.93;;;12.00;44.20;;;;;;4961061;28;46535;-64
2022/04/29 05:19:54;;;;;;;11.70;5.83;;;12.60;43.20;;;;;;4962019;28;46387;-63
2022/04/29 05:22:20;;;;;;;12.10;4.67;;;13.30;41.40;;;;;;4961727;28;46508;-63
2022/04/29 05:24:48;;;;;;;7.00;5.10;;;13.90;41.60;;;;;;4962390;28;47351;-64
2022/04/29 05:27:14;;;;;;;7.23;5.20;;;14.50;39.00;;;;;;4962003;28;46368;-64
2022/04/29 05:29:40;;;;;;;7.97;5.00;;;15.00;37.90;;;;;;4961850;28;46114;-64
2022/04/29 05:32:07;;;;;;;8.70;4.80;;;15.40;37.20;;;;;;4963626;28;46464;-64
2022/04/29 05:34:33;;;;;;;8.20;5.20;;;15.90;36.20;;;;;;4962180;28;46499;-64
2022/04/29 05:37:00;;;;;;;8.67;5.00;;;16.40;35.00;;;;;;4962057;28;46591;-65
2022/04/29 05:42:22;;;;;;;7.63;5.17;;;17.00;33.20;;;;;;4962837;28;46363;-64
2022/04/29 05:44:49;;;;;;;9.50;5.07;;;16.60;33.80;;;;;;4961401;28;46474;-64
2022/04/29 05:47:15;;;;;;;13.03;6.37;;;17.00;33.00;;;;;;4959839;28;45944;-65
2022/04/29 05:49:41;;;;;;;15.40;5.60;;;17.00;32.50;;;;;;4958988;28;46480;-66
2022/04/29 05:52:08;;;;;;;12.73;6.13;;;17.30;31.60;;;;;;4953935;28;46416;-63
2022/04/29 05:54:35;;;;;;;12.57;6.17;;;17.60;31.30;;;;;;4956107;28;46460;-65
2022/04/29 05:57:01;;;;;;;12.53;6.80;;;18.00;30.00;;;;;;4956397;28;46734;-66
2022/04/29 05:59:28;;;;;;;10.97;6.13;;;18.10;29.30;;;;;;4955269;28;46497;-65
2022/04/29 06:01:54;;;;;;;22.73;7.33;;;18.50;28.60;;;;;;4953996;28;46502;-65
2022/04/29 06:04:20;;;;;;;14.73;6.90;;;18.50;28.10;;;;;;4952385;28;47944;-65
2022/04/29 06:06:46;;;;;;;13.43;6.97;;;18.50;28.70;;;;;;4955252;28;46407;-65
2022/04/29 06:09:15;;;;;;;13.20;6.43;;;18.70;27.50;;;;;;4952921;28;46424;-64
2022/04/29 06:11:40;;;;;;;14.57;7.73;;;18.70;26.90;;;;;;4950187;28;46147;-65
2022/04/29 06:14:06;;;;;;;11.63;8.30;;;19.10;26.30;;;;;;4954465;28;46515;-65
2022/04/29 06:16:33;;;;;;;13.30;8.57;;;18.90;25.70;;;;;;4955892;28;46468;-65
2022/04/29 06:18:59;;;;;;;31.10;16.30;;;18.50;25.50;;;;;;4960188;28;46467;-65
2022/04/29 06:21:25;;;;;;;54.57;24.23;;;18.40;25.60;;;;;;4961095;28;46373;-65
2022/04/29 06:23:51;;;;;;;140.17;60.43;;;18.50;24.80;;;;;;4959824;28;47807;-65
2022/04/29 06:26:19;;;;;;;13.67;9.67;;;18.50;25.10;;;;;;4960545;28;46502;-65
2022/04/29 06:28:45;;;;;;;44.40;22.57;;;16.70;26.60;;;;;;4960133;28;46451;-65
2022/04/29 06:31:12;;;;;;;79.30;43.17;;;15.30;29.30;;;;;;4958761;28;46473;-66
2022/04/29 06:33:38;;;;;;;21.27;13.77;;;14.80;29.90;;;;;;4973634;28;47880;-66
2022/04/29 06:36:06;;;;;;;16.53;11.07;;;14.40;30.00;;;;;;4960776;28;46560;-65
2022/04/29 06:38:32;;;;;;;15.07;10.13;;;15.30;27.80;;;;;;4959224;28;46520;-64
2022/04/29 06:40:58;;;;;;;14.50;9.60;;;16.40;25.10;;;;;;4961034;28;46335;-64
2022/04/29 06:43:29;;;;;;;13.17;9.83;;;17.40;23.50;;;;;;4960412;28;48016;-65
2022/04/29 06:45:55;;;;;;;12.80;8.50;;;18.00;22.40;;;;;;4958619;28;46488;-64
2022/04/29 06:48:21;;;;;;;14.47;7.53;;;18.50;21.40;;;;;;4958832;28;46526;-65
2022/04/29 06:50:47;;;;;;;12.80;8.40;;;18.50;21.40;;;;;;4960476;28;46500;-65
2022/04/29 06:53:12;;;;;;;10.90;8.07;;;18.50;21.40;;;;;;4960283;28;48688;-64
2022/04/29 06:55:39;;;;;;;13.80;8.30;;;17.20;23.10;;;;;;4959450;28;46554;-65
2022/04/29 06:58:06;;;;;;;11.93;7.33;;;15.60;26.80;;;;;;4960081;28;46377;-65
2022/04/29 07:00:32;;;;;;;10.83;7.40;;;14.50;28.00;;;;;;4957868;28;46448;-64
2022/04/29 07:03:01;;;;;;;11.57;7.23;;;14.00;28.90;;;;;;4958572;28;48683;-64
2022/04/29 07:05:28;;;;;;;16.23;7.53;;;13.70;30.00;;;;;;4958835;28;46457;-65
2022/04/29 07:07:53;;;;;;;12.47;6.93;;;13.50;30.80;;;;;;4959306;28;46514;-65
2022/04/29 07:10:19;;;;;;;10.30;7.70;;;13.30;31.10;;;;;;4961080;28;46567;-64
2022/04/29 07:12:48;;;;;;;12.47;7.50;;;13.30;31.50;;;;;;4961865;28;46394;-64
2022/04/29 07:15:15;;;;;;;16.47;7.43;;;13.30;31.20;;;;;;4960654;28;46485;-64
2022/04/29 07:17:41;;;;;;;10.63;7.33;;;13.40;31.30;;;;;;4959665;28;46345;-64
2022/04/29 07:20:08;;;;;;;11.63;7.37;;;13.40;31.20;;;;;;4957335;28;46868;-66
2022/04/29 07:22:38;;;;;;;11.40;7.13;;;13.50;31.50;;;;;;4960159;28;48300;-65
2022/04/29 07:25:05;;;;;;;13.97;7.93;;;13.40;31.00;;;;;;4960262;28;46376;-65
2022/04/29 07:27:32;;;;;;;10.97;7.23;;;13.40;31.30;;;;;;4957732;28;46423;-65
2022/04/29 07:29:59;;;;;;;12.00;7.03;;;13.50;31.60;;;;;;4959215;28;46453;-65
2022/04/29 07:32:25;;;;;;;12.47;7.63;;;13.70;31.60;;;;;;4959128;28;47938;-65
2022/04/29 07:43:06;;;;;;;12.77;7.20;;;14.40;30.00;;;;;;4956641;28;46614;-64
2022/04/29 07:45:31;;;;;;;9.37;6.70;;;14.50;29.70;;;;;;4955616;28;46388;-65
2022/04/29 07:48:00;;;;;;;15.63;6.97;;;14.60;29.30;;;;;;4956574;28;46313;-65
2022/04/29 07:50:29;;;;;;;13.53;6.47;;;14.80;29.50;;;;;;4958853;28;46762;-65
2022/04/29 07:52:56;;;;;;;11.33;6.43;;;14.90;29.60;;;;;;4957782;28;48873;-64
2022/04/29 07:55:22;;;;;;;16.63;7.47;;;15.10;29.10;;;;;;4958675;28;46418;-64
2022/04/29 07:57:47;;;;;;;8.80;5.47;;;15.20;28.30;;;;;;4958988;28;46499;-64
2022/04/29 08:00:14;;;;;;;9.40;6.13;;;15.30;28.00;;;;;;4957236;28;46518;-65
2022/04/29 08:02:40;;;;;;;11.03;5.80;;;15.30;27.70;;;;;;4959390;28;47925;-64
2022/04/29 08:05:06;;;;;;;14.67;6.20;;;15.60;27.10;;;;;;4958843;28;46523;-65
2022/04/29 08:07:33;;;;;;;11.90;6.17;;;15.70;26.70;;;;;;4956061;28;46543;-65
2022/04/29 08:09:59;;;;;;;7.60;5.57;;;15.70;26.60;;;;;;4958593;28;46329;-65
2022/04/29 08:12:28;;;;;;;8.70;6.00;;;15.80;25.70;;;;;;4960454;28;46414;-64
2022/04/29 08:14:54;;;;;;;8.20;5.47;;;16.00;25.00;;;;;;4952321;28;46907;-64
2022/04/29 08:17:21;;;;;;;8.87;6.00;;;16.00;24.10;;;;;;4958868;28;46612;-64
2022/04/29 08:19:50;;;;;;;10.10;5.20;;;16.10;23.90;;;;;;4958942;28;46439;-66
2022/04/29 08:22:16;;;;;;;19.10;5.57;;;16.20;22.50;;;;;;4956772;28;47337;-65
2022/04/29 08:24:43;;;;;;;11.47;5.80;;;16.10;21.90;;;;;;4957181;28;46480;-65
2022/04/29 08:27:10;;;;;;;10.27;5.40;;;16.20;21.20;;;;;;4960700;28;46577;-64
2022/04/29 08:29:37;;;;;;;9.30;5.47;;;16.30;21.00;;;;;;4958088;28;46529;-65
2022/04/29 08:32:05;;;;;;;17.03;5.50;;;16.40;21.30;;;;;;4959162;28;47794;-65
2022/04/29 08:34:33;;;;;;;9.53;4.83;;;16.70;21.50;;;;;;4956355;28;46780;-65
2022/04/29 08:37:03;;;;;;;11.53;5.40;;;16.70;20.10;;;;;;4957238;28;45845;-65
2022/04/29 08:39:30;;;;;;;13.40;5.50;;;16.50;19.50;;;;;;4959070;28;46506;-66
2022/04/29 08:42:01;;;;;;;12.60;5.60;;;16.40;19.90;;;;;;4956381;28;48256;-65
2022/04/29 08:44:31;;;;;;;9.23;6.00;;;16.40;20.40;;;;;;4958095;28;46307;-65
2022/04/29 08:46:57;;;;;;;8.83;5.90;;;16.30;20.10;;;;;;4955578;28;46485;-64
2022/04/29 08:49:25;;;;;;;9.13;5.97;;;16.10;20.40;;;;;;4949635;28;45971;-64
2022/04/29 08:51:52;;;;;;;8.67;5.83;;;16.10;20.70;;;;;;4958222;28;46471;-65
2022/04/29 08:59:58;;;;;;;10.33;4.77;;;16.30;19.80;;;;;;4961949;28;46413;-66
2022/04/29 09:02:25;;;;;;;8.83;6.10;;;16.40;20.30;;;;;;4959880;28;46446;-64
2022/04/29 09:04:53;;;;;;;10.27;5.13;;;16.40;20.20;;;;;;4961186;28;46657;-64
2022/04/29 09:07:19;;;;;;;7.97;4.80;;;16.40;19.90;;;;;;4962305;28;45838;-64
2022/04/29 09:10:02;;;;;;;9.30;4.60;;;16.50;19.90;;;;;;4959459;28;46555;-65
2022/04/29 09:12:28;;;;;;;11.87;4.67;;;16.70;20.10;;;;;;4961253;28;47216;-66
2022/04/29 09:15:14;;;;;;;12.70;4.30;;;16.80;19.00;;;;;;4962076;28;46441;-65
2022/04/29 09:17:51;;;;;;;11.63;4.53;;;16.90;18.00;;;;;;4953456;28;46443;-65
2022/04/29 09:20:21;;;;;;;9.00;4.40;;;17.00;18.20;;;;;;4960935;28;46450;-66
2022/04/29 09:22:49;;;;;;;6.37;3.80;;;16.90;17.90;;;;;;4961402;28;46611;-62
2022/04/29 09:25:16;;;;;;;7.87;4.93;;;17.20;18.20;;;;;;4961460;28;46449;-63
2022/04/29 09:27:57;;;;;;;13.80;4.30;;;17.20;17.40;;;;;;4958128;28;46483;-65
2022/04/29 09:30:39;;;;;;;10.10;4.67;;;17.20;17.20;;;;;;4961226;28;46559;-65
2022/04/29 09:33:07;;;;;;;7.40;4.60;;;17.50;17.70;;;;;;4960886;28;46426;-65
2022/04/29 09:35:41;;;;;;;7.53;4.07;;;17.60;16.40;;;;;;4961369;28;46544;-64
2022/04/29 09:40:53;;;;;;;5.33;3.23;;;17.80;16.00;;;;;;4963115;28;46651;-64
2022/04/29 09:43:42;;;;;;;11.40;3.47;;;17.90;15.30;;;;;;4960359;28;47352;-65
2022/04/29 09:46:23;;;;;;;9.23;4.50;;;18.30;14.80;;;;;;4957910;28;46737;-66
2022/04/29 09:49:09;;;;;;;7.83;4.57;;;18.20;14.50;;;;;;4958548;28;46392;-64
2022/04/29 09:51:41;;;;;;;9.97;4.03;;;18.00;14.90;;;;;;4959272;28;46472;-65
2022/04/29 09:54:15;;;;;;;5.30;3.53;;;17.90;15.20;;;;;;4959804;28;47360;-65
2022/04/29 09:56:41;;;;;;;7.53;4.30;;;18.00;14.90;;;;;;4957946;28;46402;-65
2022/04/29 09:59:08;;;;;;;7.27;4.20;;;18.00;14.90;;;;;;4960429;28;45925;-65
2022/04/29 10:01:34;;;;;;;6.10;4.13;;;18.10;15.10;;;;;;4960980;28;46413;-66
2022/04/29 10:04:00;;;;;;;14.17;4.37;;;18.00;14.70;;;;;;4960221;28;47959;-65
2022/04/29 10:06:28;;;;;;;5.90;3.53;;;18.00;15.10;;;;;;4962094;28;46387;-63
2022/04/29 10:08:58;;;;;;;6.77;4.20;;;17.90;13.80;;;;;;4960818;28;46661;-63
2022/04/29 10:11:26;;;;;;;8.50;4.20;;;17.90;14.10;;;;;;4962057;28;46390;-62
2022/04/29 10:13:53;;;;;;;7.00;3.67;;;17.90;14.30;;;;;;4962427;28;46531;-63
2022/04/29 10:16:19;;;;;;;8.47;4.17;;;18.20;14.20;;;;;;4965932;28;46486;-64
2022/04/29 10:21:45;;;;;;;4.90;3.40;;;18.10;14.10;;;;;;4961421;28;46434;-64
2022/04/29 10:24:12;;;;;;;8.37;3.30;;;18.20;13.50;;;;;;4962812;28;47126;-64
2022/04/29 10:26:38;;;;;;;7.50;4.03;;;18.20;13.70;;;;;;4952010;28;46403;-64
2022/04/29 10:29:05;;;;;;;6.27;4.20;;;18.30;13.50;;;;;;4962145;28;46250;-64
2022/04/29 10:31:30;;;;;;;10.47;4.20;;;18.30;12.50;;;;;;4964109;28;46217;-64
2022/04/29 10:34:30;;;;;;;6.90;4.03;;;18.20;12.40;;;;;;4963860;28;47021;-63
2022/04/29 10:36:57;;;;;;;7.87;3.63;;;18.30;12.80;;;;;;4963122;28;46467;-64
2022/04/29 10:39:22;;;;;;;6.07;4.00;;;18.20;12.60;;;;;;4962122;28;46410;-64
2022/04/29 10:42:02;;;;;;;10.40;4.63;;;18.20;13.10;;;;;;4962952;28;46261;-64
2022/04/29 10:44:29;;;;;;;7.87;4.30;;;18.20;13.20;;;;;;4957260;28;46259;-63
2022/04/29 10:46:55;;;;;;;7.13;4.20;;;18.50;13.70;;;;;;4961922;28;46376;-64
2022/04/29 10:49:25;;;;;;;6.97;4.50;;;18.50;13.40;;;;;;4962629;28;46408;-64
2022/04/29 10:51:53;;;;;;;7.03;4.20;;;18.30;12.40;;;;;;4961183;28;46456;-65
2022/04/29 10:54:34;;;;;;;6.07;3.90;;;18.40;12.90;;;;;;4959400;28;48483;-64
2022/04/29 10:57:04;;;;;;;7.23;3.97;;;18.50;12.90;;;;;;4965702;28;45773;-64
2022/04/29 10:59:49;;;;;;;8.73;4.60;;;18.30;12.60;;;;;;4961806;28;45826;-64
2022/04/29 11:02:27;;;;;;;7.00;4.57;;;18.30;12.80;;;;;;4962755;28;46529;-63
2022/04/29 11:04:54;;;;;;;8.43;4.13;;;18.30;13.10;;;;;;4961089;28;48146;-63
2022/04/29 11:07:39;;;;;;;9.40;4.17;;;18.60;13.40;;;;;;4961167;28;46412;-63
2022/04/29 11:10:07;;;;;;;8.37;4.10;;;18.70;12.40;;;;;;4962541;28;46481;-63
2022/04/29 11:12:34;;;;;;;9.63;4.87;;;18.70;12.40;;;;;;4962283;28;45869;-64
2022/04/29 11:15:21;;;;;;;7.87;4.80;;;18.70;12.80;;;;;;4960753;28;46575;-65
2022/04/29 11:17:47;;;;;;;10.97;4.90;;;18.80;13.10;;;;;;4962633;28;46537;-64
2022/04/29 11:20:18;;;;;;;10.77;5.00;;;18.80;13.60;;;;;;4963352;28;46325;-65
2022/04/29 11:25:50;;;;;;;7.67;4.80;;;18.90;13.40;;;;;;4963506;28;46582;-64
2022/04/29 11:28:17;;;;;;;7.50;5.00;;;19.30;13.20;;;;;;4956511;28;46453;-64
2022/04/29 11:30:43;;;;;;;8.63;4.87;;;19.20;12.90;;;;;;4954245;28;46620;-63
2022/04/29 11:33:09;;;;;;;7.37;4.97;;;19.20;12.70;;;;;;4955651;28;46352;-64
2022/04/29 11:35:34;;;;;;;9.33;5.40;;;19.10;12.90;;;;;;4957011;28;47957;-65
2022/04/29 11:38:00;;;;;;;9.73;4.70;;;19.10;13.00;;;;;;4954974;28;46290;-64
2022/04/29 11:40:26;;;;;;;8.40;4.20;;;19.20;12.90;;;;;;4955570;28;46360;-64
2022/04/29 11:42:52;;;;;;;7.13;4.57;;;19.20;12.80;;;;;;4953546;28;46461;-64
2022/04/29 11:45:23;;;;;;;9.97;4.30;;;19.30;12.70;;;;;;4949785;28;47867;-64
2022/04/29 11:47:48;;;;;;;8.40;4.37;;;19.40;12.80;;;;;;4950791;28;46359;-66
2022/04/29 11:50:14;;;;;;;17.30;5.07;;;19.50;13.10;;;;;;4951324;28;46439;-65
2022/04/29 11:52:40;;;;;;;13.80;5.07;;;19.80;12.40;;;;;;4952551;28;46327;-65
2022/04/29 11:55:14;;;;;;;12.07;4.60;;;19.90;12.10;;;;;;4950891;28;46476;-65
2022/04/29 11:57:49;;;;;;;11.43;4.53;;;19.80;11.20;;;;;;4956742;28;46456;-63
2022/04/29 12:00:29;;;;;;;11.53;4.63;;;19.60;11.60;;;;;;4952777;28;46531;-63
2022/04/29 12:02:56;;;;;;;10.40;4.93;;;19.50;11.10;;;;;;4956908;28;46506;-65
2022/04/29 12:05:27;;;;;;;9.87;4.30;;;19.60;11.50;;;;;;4948260;28;47833;-66
2022/04/29 12:07:54;;;;;;;7.40;4.67;;;19.70;11.80;;;;;;4956228;28;46889;-65
2022/04/29 12:10:23;;;;;;;10.83;4.60;;;19.90;11.50;;;;;;4944416;28;46473;-63
2022/04/29 12:13:00;;;;;;;5.50;3.70;;;20.20;11.60;;;;;;4951808;28;46508;-64
2022/04/29 12:15:32;;;;;;;8.33;5.00;;;20.30;11.60;;;;;;4966618;28;48032;-66
2022/04/29 12:18:01;;;;;;;8.23;4.50;;;20.20;11.50;;;;;;4955935;28;46455;-62
2022/04/29 12:20:27;;;;;;;8.97;5.47;;;20.10;11.50;;;;;;4955193;28;46597;-66
2022/04/29 12:22:54;;;;;;;10.70;4.77;;;19.90;11.20;;;;;;4955175;28;46439;-64
2022/04/29 12:25:29;;;;;;;6.60;5.10;;;19.70;11.10;;;;;;4957484;28;46486;-65
2022/04/29 12:28:19;;;;;;;8.10;4.97;;;19.80;11.20;;;;;;4960234;28;46479;-65
2022/04/29 12:36:57;;;;;;;9.60;5.53;;;19.90;11.20;;;;;;4962080;28;46344;-65
2022/04/29 12:39:34;;;;;;;8.33;5.30;;;20.00;11.30;;;;;;4959829;28;46273;-65
2022/04/29 12:42:12;;;;;;;11.10;5.00;;;20.40;11.70;;;;;;4962226;28;45825;-65
2022/04/29 12:47:38;;;;;;;9.57;6.30;;;20.60;11.70;;;;;;4957562;28;46909;-65
2022/04/29 12:50:28;;;;;;;11.50;6.47;;;20.40;11.30;;;;;;4952615;28;46432;-65
2022/04/29 12:52:55;;;;;;;8.17;5.90;;;20.30;11.50;;;;;;4956449;28;46471;-65
2022/04/29 12:55:21;;;;;;;11.03;5.30;;;20.40;11.60;;;;;;4957354;28;46603;-65
2022/04/29 12:57:47;;;;;;;9.40;5.97;;;20.50;11.70;;;;;;4956328;28;48601;-66
2022/04/29 13:00:24;;;;;;;8.90;5.40;;;20.50;11.70;;;;;;4953413;28;45801;-65
2022/04/29 13:03:00;;;;;;;8.17;5.90;;;20.50;11.70;;;;;;4956390;28;46371;-66
2022/04/29 13:05:27;;;;;;;8.43;5.43;;;20.50;11.70;;;;;;4955902;28;46409;-66
2022/04/29 13:07:53;;;;;;;9.87;5.60;;;20.70;11.80;;;;;;4954376;28;47349;-64
2022/04/29 13:10:19;;;;;;;12.73;6.33;;;20.60;11.70;;;;;;4954581;28;45837;-65
2022/04/29 13:12:48;;;;;;;12.00;5.90;;;20.50;11.70;;;;;;4955565;28;46508;-67
2022/04/29 13:15:15;;;;;;;11.30;6.63;;;20.70;11.90;;;;;;4957023;28;46579;-64
2022/04/29 13:17:41;;;;;;;13.90;7.17;;;20.60;11.70;;;;;;4956423;28;48052;-64
2022/04/29 13:20:08;;;;;;;9.63;6.50;;;20.70;11.80;;;;;;4957775;28;46407;-67
2022/04/29 13:22:35;;;;;;;11.13;6.37;;;20.70;12.20;;;;;;4955806;28;45833;-67
2022/04/29 13:25:01;;;;;;;12.33;6.07;;;20.50;11.70;;;;;;4956941;28;46467;-65
2022/04/29 13:27:28;;;;;;;10.60;6.50;;;20.30;11.50;;;;;;4961180;28;46360;-65
2022/04/29 13:29:55;;;;;;;12.13;6.20;;;20.30;11.60;;;;;;4960392;28;45850;-64